sensor_id;sensor_type;location;lat;lon;timestamp;temperature;humidity
14277;DHT22;7222;57.346;12.150;2022-07-23T00:01:22;16.00;99.90
14277;DHT22;7222;57.346;12.150;2022-07-23T00:03:50;16.00;99.90
14277;DHT22;7222;57.346;12.150;2022-07-23T00:06:17;16.00;99.90
14277;DHT22;7222;57.346;12.150;2022-07-23T00:08:46;16.00;99.90
14277;DHT22;7222;57.346;12.150;2022-07-23T00:11:13;16.00;99.90
14277;DHT22;7222;57.346;12.150;2022-07-23T00:13:40;16.00;99.90
14277;DHT22;7222;57.346;12.150;2022-07-23T00:16:08;15.90;99.90
14277;DHT22;7222;57.346;12.150;2022-07-23T00:18:35;15.90;99.90
14277;DHT22;7222;57.346;12.150;2022-07-23T00:21:02;15.80;99.90
14277;DHT22;7222;57.346;12.150;2022-07-23T00:23:29;15.90;99.90
14277;DHT22;7222;57.346;12.150;2022-07-23T00:25:58;15.80;99.90
14277;DHT22;7222;57.346;12.150;2022-07-23T00:28:25;15.70;99.90
14277;DHT22;7222;57.346;12.150;2022-07-23T00:30:52;15.70;99.90
14277;DHT22;7222;57.346;12.150;2022-07-23T00:33:19;15.60;99.90
14277;DHT22;7222;57.346;12.150;2022-07-23T00:35:47;15.70;99.90
14277;DHT22;7222;57.346;12.150;2022-07-23T00:38:14;15.50;99.90
14277;DHT22;7222;57.346;12.150;2022-07-23T00:40:41;15.60;99.90
14277;DHT22;7222;57.346;12.150;2022-07-23T00:43:09;15.50;99.90
14277;DHT22;7222;57.346;12.150;2022-07-23T00:45:36;15.50;99.90
14277;DHT22;7222;57.346;12.150;2022-07-23T00:48:05;15.50;99.90
14277;DHT22;7222;57.346;12.150;2022-07-23T00:50:32;15.40;99.90
14277;DHT22;7222;57.346;12.150;2022-07-23T00:52:59;15.40;99.90
14277;DHT22;7222;57.346;12.150;2022-07-23T00:55:26;15.40;99.90
14277;DHT22;7222;57.346;12.150;2022-07-23T00:57:53;15.40;99.90
14277;DHT22;7222;57.346;12.150;2022-07-23T01:00:23;15.40;99.90
14277;DHT22;7222;57.346;12.150;2022-07-23T01:02:50;15.30;99.90
14277;DHT22;7222;57.346;12.150;2022-07-23T01:05:18;15.30;99.90
14277;DHT22;7222;57.346;12.150;2022-07-23T01:07:48;15.20;99.90
14277;DHT22;7222;57.346;12.150;2022-07-23T01:10:15;15.20;99.90
14277;DHT22;7222;57.346;12.150;2022-07-23T01:13:06;15.20;99.90
14277;DHT22;7222;57.346;12.150;2022-07-23T01:15:36;15.20;99.90
14277;DHT22;7222;57.346;12.150;2022-07-23T01:18:05;15.20;99.90
14277;DHT22;7222;57.346;12.150;2022-07-23T01:20:32;15.10;99.90
14277;DHT22;7222;57.346;12.150;2022-07-23T01:23:01;15.10;99.90
14277;DHT22;7222;57.346;12.150;2022-07-23T01:25:28;15.10;99.90
14277;DHT22;7222;57.346;12.150;2022-07-23T01:27:55;15.10;99.90
14277;DHT22;7222;57.346;12.150;2022-07-23T01:30:22;15.00;99.90
14277;DHT22;7222;57.346;12.150;2022-07-23T01:32:49;15.00;99.90
14277;DHT22;7222;57.346;12.150;2022-07-23T01:35:16;15.00;99.90
14277;DHT22;7222;57.346;12.150;2022-07-23T01:37:43;15.00;99.90
14277;DHT22;7222;57.346;12.150;2022-07-23T01:40:11;15.00;99.90
14277;DHT22;7222;57.346;12.150;2022-07-23T01:42:38;14.90;99.90
14277;DHT22;7222;57.346;12.150;2022-07-23T01:45:06;14.90;99.90
14277;DHT22;7222;57.346;12.150;2022-07-23T01:47:33;14.90;99.90
14277;DHT22;7222;57.346;12.150;2022-07-23T01:50:00;14.70;99.90
14277;DHT22;7222;57.346;12.150;2022-07-23T01:52:27;14.70;99.90
14277;DHT22;7222;57.346;12.150;2022-07-23T01:54:54;14.70;99.90
14277;DHT22;7222;57.346;12.150;2022-07-23T01:57:23;14.70;99.90
14277;DHT22;7222;57.346;12.150;2022-07-23T01:59:50;14.60;99.90
14277;DHT22;7222;57.346;12.150;2022-07-23T02:02:17;14.50;99.90
14277;DHT22;7222;57.346;12.150;2022-07-23T02:04:44;14.50;99.90
14277;DHT22;7222;57.346;12.150;2022-07-23T02:07:11;14.50;99.90
14277;DHT22;7222;57.346;12.150;2022-07-23T02:09:38;14.50;99.90
14277;DHT22;7222;57.346;12.150;2022-07-23T02:12:05;14.50;99.90
14277;DHT22;7222;57.346;12.150;2022-07-23T02:14:34;14.50;99.90
14277;DHT22;7222;57.346;12.150;2022-07-23T02:17:01;14.40;99.90
14277;DHT22;7222;57.346;12.150;2022-07-23T02:19:27;14.40;99.90
14277;DHT22;7222;57.346;12.150;2022-07-23T02:21:55;14.30;99.90
14277;DHT22;7222;57.346;12.150;2022-07-23T02:24:22;14.40;99.90
14277;DHT22;7222;57.346;12.150;2022-07-23T02:26:49;14.40;99.90
14277;DHT22;7222;57.346;12.150;2022-07-23T02:29:16;14.30;99.90
14277;DHT22;7222;57.346;12.150;2022-07-23T02:31:44;14.30;99.90
14277;DHT22;7222;57.346;12.150;2022-07-23T02:34:12;14.40;99.90
14277;DHT22;7222;57.346;12.150;2022-07-23T02:36:39;14.40;99.90
14277;DHT22;7222;57.346;12.150;2022-07-23T02:39:06;14.50;99.90
14277;DHT22;7222;57.346;12.150;2022-07-23T02:41:33;14.50;99.90
14277;DHT22;7222;57.346;12.150;2022-07-23T02:44:00;14.40;99.90
14277;DHT22;7222;57.346;12.150;2022-07-23T02:46:27;14.30;99.90
14277;DHT22;7222;57.346;12.150;2022-07-23T02:48:55;14.40;99.90
14277;DHT22;7222;57.346;12.150;2022-07-23T02:51:22;14.40;99.90
14277;DHT22;7222;57.346;12.150;2022-07-23T02:53:49;14.40;99.90
14277;DHT22;7222;57.346;12.150;2022-07-23T02:56:16;14.40;99.90
14277;DHT22;7222;57.346;12.150;2022-07-23T02:58:43;14.30;99.90
14277;DHT22;7222;57.346;12.150;2022-07-23T03:01:10;14.30;99.90
14277;DHT22;7222;57.346;12.150;2022-07-23T03:03:37;14.30;99.90
14277;DHT22;7222;57.346;12.150;2022-07-23T03:06:06;14.30;99.90
14277;DHT22;7222;57.346;12.150;2022-07-23T03:08:33;14.40;99.90
14277;DHT22;7222;57.346;12.150;2022-07-23T03:11:00;14.40;99.90
14277;DHT22;7222;57.346;12.150;2022-07-23T03:13:27;14.40;99.90
14277;DHT22;7222;57.346;12.150;2022-07-23T03:15:55;14.40;99.90
14277;DHT22;7222;57.346;12.150;2022-07-23T03:18:22;14.40;99.90
14277;DHT22;7222;57.346;12.150;2022-07-23T03:20:49;14.50;99.90
14277;DHT22;7222;57.346;12.150;2022-07-23T03:23:17;14.40;99.90
14277;DHT22;7222;57.346;12.150;2022-07-23T03:25:44;14.40;99.90
14277;DHT22;7222;57.346;12.150;2022-07-23T03:28:12;14.40;99.90
14277;DHT22;7222;57.346;12.150;2022-07-23T03:30:39;14.50;99.90
14277;DHT22;7222;57.346;12.150;2022-07-23T03:33:06;14.40;99.90
14277;DHT22;7222;57.346;12.150;2022-07-23T03:35:33;14.40;99.90
14277;DHT22;7222;57.346;12.150;2022-07-23T03:38:00;14.50;99.90
14277;DHT22;7222;57.346;12.150;2022-07-23T03:40:28;14.50;99.90
14277;DHT22;7222;57.346;12.150;2022-07-23T03:42:55;14.50;99.90
14277;DHT22;7222;57.346;12.150;2022-07-23T03:45:22;14.50;99.90
14277;DHT22;7222;57.346;12.150;2022-07-23T03:47:49;14.50;99.90
14277;DHT22;7222;57.346;12.150;2022-07-23T03:50:16;14.60;99.90
14277;DHT22;7222;57.346;12.150;2022-07-23T03:52:44;14.60;99.90
14277;DHT22;7222;57.346;12.150;2022-07-23T03:55:11;14.60;99.90
14277;DHT22;7222;57.346;12.150;2022-07-23T03:57:39;14.60;99.90
14277;DHT22;7222;57.346;12.150;2022-07-23T04:00:08;14.70;99.90
14277;DHT22;7222;57.346;12.150;2022-07-23T04:02:35;14.70;99.90
14277;DHT22;7222;57.346;12.150;2022-07-23T04:05:02;14.80;99.90
14277;DHT22;7222;57.346;12.150;2022-07-23T04:07:30;14.90;99.90
14277;DHT22;7222;57.346;12.150;2022-07-23T04:09:57;15.00;99.90
14277;DHT22;7222;57.346;12.150;2022-07-23T04:12:25;15.00;99.90
14277;DHT22;7222;57.346;12.150;2022-07-23T04:14:54;15.10;99.90
14277;DHT22;7222;57.346;12.150;2022-07-23T04:17:21;15.40;99.90
14277;DHT22;7222;57.346;12.150;2022-07-23T04:19:48;15.30;99.90
14277;DHT22;7222;57.346;12.150;2022-07-23T04:22:15;15.50;99.90
14277;DHT22;7222;57.346;12.150;2022-07-23T04:24:42;15.50;99.90
14277;DHT22;7222;57.346;12.150;2022-07-23T04:27:11;15.60;99.90
14277;DHT22;7222;57.346;12.150;2022-07-23T04:29:38;15.50;99.90
14277;DHT22;7222;57.346;12.150;2022-07-23T04:32:07;15.50;99.90
14277;DHT22;7222;57.346;12.150;2022-07-23T04:34:34;15.40;99.90
14277;DHT22;7222;57.346;12.150;2022-07-23T04:37:01;15.40;99.90
14277;DHT22;7222;57.346;12.150;2022-07-23T04:39:28;15.50;99.90
14277;DHT22;7222;57.346;12.150;2022-07-23T04:41:55;15.20;99.90
14277;DHT22;7222;57.346;12.150;2022-07-23T04:44:22;15.50;99.90
14277;DHT22;7222;57.346;12.150;2022-07-23T04:46:49;15.70;99.90
14277;DHT22;7222;57.346;12.150;2022-07-23T04:49:17;15.60;99.90
14277;DHT22;7222;57.346;12.150;2022-07-23T04:51:44;15.40;99.90
14277;DHT22;7222;57.346;12.150;2022-07-23T04:54:11;15.50;99.90
14277;DHT22;7222;57.346;12.150;2022-07-23T04:56:38;15.60;99.90
14277;DHT22;7222;57.346;12.150;2022-07-23T04:59:05;15.60;99.90
14277;DHT22;7222;57.346;12.150;2022-07-23T05:01:32;15.70;99.90
14277;DHT22;7222;57.346;12.150;2022-07-23T05:03:59;15.80;99.90
14277;DHT22;7222;57.346;12.150;2022-07-23T05:06:28;15.80;99.90
14277;DHT22;7222;57.346;12.150;2022-07-23T05:08:55;15.80;99.90
14277;DHT22;7222;57.346;12.150;2022-07-23T05:11:22;16.00;99.90
14277;DHT22;7222;57.346;12.150;2022-07-23T05:13:49;15.90;99.90
14277;DHT22;7222;57.346;12.150;2022-07-23T05:16:17;15.70;99.90
14277;DHT22;7222;57.346;12.150;2022-07-23T05:18:44;15.90;99.90
14277;DHT22;7222;57.346;12.150;2022-07-23T05:21:11;15.90;99.90
14277;DHT22;7222;57.346;12.150;2022-07-23T05:23:39;16.10;99.90
14277;DHT22;7222;57.346;12.150;2022-07-23T05:26:06;15.90;99.90
14277;DHT22;7222;57.346;12.150;2022-07-23T05:28:33;16.10;99.90
14277;DHT22;7222;57.346;12.150;2022-07-23T05:31:00;16.00;99.90
14277;DHT22;7222;57.346;12.150;2022-07-23T05:33:29;16.10;99.90
14277;DHT22;7222;57.346;12.150;2022-07-23T05:36:00;16.40;99.90
14277;DHT22;7222;57.346;12.150;2022-07-23T05:38:28;16.40;99.90
14277;DHT22;7222;57.346;12.150;2022-07-23T05:40:57;16.30;99.90
14277;DHT22;7222;57.346;12.150;2022-07-23T05:43:24;16.30;99.90
14277;DHT22;7222;57.346;12.150;2022-07-23T05:45:51;16.50;99.90
14277;DHT22;7222;57.346;12.150;2022-07-23T05:48:19;16.40;99.90
14277;DHT22;7222;57.346;12.150;2022-07-23T05:50:47;16.50;99.90
14277;DHT22;7222;57.346;12.150;2022-07-23T05:53:14;16.60;99.90
14277;DHT22;7222;57.346;12.150;2022-07-23T05:55:41;16.70;99.90
14277;DHT22;7222;57.346;12.150;2022-07-23T05:58:09;16.70;99.90
14277;DHT22;7222;57.346;12.150;2022-07-23T06:00:36;16.60;99.90
14277;DHT22;7222;57.346;12.150;2022-07-23T06:03:03;17.00;99.90
14277;DHT22;7222;57.346;12.150;2022-07-23T06:05:30;16.80;99.90
14277;DHT22;7222;57.346;12.150;2022-07-23T06:07:57;16.90;99.90
14277;DHT22;7222;57.346;12.150;2022-07-23T06:10:25;16.80;99.90
14277;DHT22;7222;57.346;12.150;2022-07-23T06:12:52;16.90;99.90
14277;DHT22;7222;57.346;12.150;2022-07-23T06:15:20;17.00;99.90
14277;DHT22;7222;57.346;12.150;2022-07-23T06:17:47;17.00;99.90
14277;DHT22;7222;57.346;12.150;2022-07-23T06:20:14;17.10;99.90
14277;DHT22;7222;57.346;12.150;2022-07-23T06:22:41;17.30;99.90
14277;DHT22;7222;57.346;12.150;2022-07-23T06:25:08;17.40;99.90
14277;DHT22;7222;57.346;12.150;2022-07-23T06:27:36;17.30;99.90
14277;DHT22;7222;57.346;12.150;2022-07-23T06:30:03;17.20;99.90
14277;DHT22;7222;57.346;12.150;2022-07-23T06:32:32;17.30;99.90
14277;DHT22;7222;57.346;12.150;2022-07-23T06:34:59;17.40;99.90
14277;DHT22;7222;57.346;12.150;2022-07-23T06:37:26;17.40;99.90
14277;DHT22;7222;57.346;12.150;2022-07-23T06:39:53;17.40;99.90
14277;DHT22;7222;57.346;12.150;2022-07-23T06:42:21;17.40;99.90
14277;DHT22;7222;57.346;12.150;2022-07-23T06:44:48;17.60;99.90
14277;DHT22;7222;57.346;12.150;2022-07-23T06:47:15;17.60;99.90
14277;DHT22;7222;57.346;12.150;2022-07-23T06:49:44;17.70;99.90
14277;DHT22;7222;57.346;12.150;2022-07-23T06:52:11;17.80;99.90
14277;DHT22;7222;57.346;12.150;2022-07-23T06:54:38;17.70;99.90
14277;DHT22;7222;57.346;12.150;2022-07-23T06:57:05;17.80;99.90
14277;DHT22;7222;57.346;12.150;2022-07-23T06:59:32;17.70;99.90
14277;DHT22;7222;57.346;12.150;2022-07-23T07:02:02;17.90;99.90
14277;DHT22;7222;57.346;12.150;2022-07-23T07:04:29;17.80;99.90
14277;DHT22;7222;57.346;12.150;2022-07-23T07:06:58;17.90;99.90
14277;DHT22;7222;57.346;12.150;2022-07-23T07:09:25;18.00;99.90
14277;DHT22;7222;57.346;12.150;2022-07-23T07:11:52;18.10;99.90
14277;DHT22;7222;57.346;12.150;2022-07-23T07:14:19;18.20;99.90
14277;DHT22;7222;57.346;12.150;2022-07-23T07:16:46;18.30;99.90
14277;DHT22;7222;57.346;12.150;2022-07-23T07:19:13;18.40;99.90
14277;DHT22;7222;57.346;12.150;2022-07-23T07:21:40;18.40;99.90
14277;DHT22;7222;57.346;12.150;2022-07-23T07:24:08;18.40;99.90
14277;DHT22;7222;57.346;12.150;2022-07-23T07:26:36;18.50;99.90
14277;DHT22;7222;57.346;12.150;2022-07-23T07:29:04;18.60;99.90
14277;DHT22;7222;57.346;12.150;2022-07-23T07:31:31;18.60;99.90
14277;DHT22;7222;57.346;12.150;2022-07-23T07:33:59;18.60;99.90
14277;DHT22;7222;57.346;12.150;2022-07-23T07:36:26;18.60;99.90
14277;DHT22;7222;57.346;12.150;2022-07-23T07:38:53;18.70;99.90
14277;DHT22;7222;57.346;12.150;2022-07-23T07:41:21;18.80;99.90
14277;DHT22;7222;57.346;12.150;2022-07-23T07:43:50;18.80;99.90
14277;DHT22;7222;57.346;12.150;2022-07-23T07:46:17;18.80;99.90
14277;DHT22;7222;57.346;12.150;2022-07-23T07:48:44;18.90;99.90
14277;DHT22;7222;57.346;12.150;2022-07-23T07:51:11;18.90;99.90
14277;DHT22;7222;57.346;12.150;2022-07-23T07:53:38;18.90;99.90
14277;DHT22;7222;57.346;12.150;2022-07-23T07:56:05;19.00;99.90
14277;DHT22;7222;57.346;12.150;2022-07-23T07:58:34;19.00;99.90
14277;DHT22;7222;57.346;12.150;2022-07-23T08:01:01;19.00;99.90
14277;DHT22;7222;57.346;12.150;2022-07-23T08:03:28;19.10;99.90
14277;DHT22;7222;57.346;12.150;2022-07-23T08:05:55;19.20;99.90
14277;DHT22;7222;57.346;12.150;2022-07-23T08:08:22;19.30;99.90
14277;DHT22;7222;57.346;12.150;2022-07-23T08:10:50;19.40;99.90
14277;DHT22;7222;57.346;12.150;2022-07-23T08:13:17;19.40;99.90
14277;DHT22;7222;57.346;12.150;2022-07-23T08:15:46;19.40;99.90
14277;DHT22;7222;57.346;12.150;2022-07-23T08:18:13;19.50;99.90
14277;DHT22;7222;57.346;12.150;2022-07-23T08:20:40;19.50;99.90
14277;DHT22;7222;57.346;12.150;2022-07-23T08:23:07;19.50;99.90
14277;DHT22;7222;57.346;12.150;2022-07-23T08:25:36;19.60;99.90
14277;DHT22;7222;57.346;12.150;2022-07-23T08:28:06;19.70;99.90
14277;DHT22;7222;57.346;12.150;2022-07-23T08:30:34;19.70;99.90
14277;DHT22;7222;57.346;12.150;2022-07-23T08:33:04;19.80;99.90
14277;DHT22;7222;57.346;12.150;2022-07-23T08:35:34;19.80;99.90
14277;DHT22;7222;57.346;12.150;2022-07-23T08:38:04;19.90;99.90
14277;DHT22;7222;57.346;12.150;2022-07-23T08:40:33;19.90;99.90
14277;DHT22;7222;57.346;12.150;2022-07-23T08:43:05;20.00;99.90
14277;DHT22;7222;57.346;12.150;2022-07-23T08:45:35;20.20;99.90
14277;DHT22;7222;57.346;12.150;2022-07-23T08:48:07;20.30;99.90
14277;DHT22;7222;57.346;12.150;2022-07-23T08:50:35;20.50;99.90
14277;DHT22;7222;57.346;12.150;2022-07-23T08:53:06;20.60;99.90
14277;DHT22;7222;57.346;12.150;2022-07-23T08:55:33;20.70;99.90
14277;DHT22;7222;57.346;12.150;2022-07-23T08:58:00;20.80;99.90
14277;DHT22;7222;57.346;12.150;2022-07-23T09:00:28;20.80;99.90
14277;DHT22;7222;57.346;12.150;2022-07-23T09:02:55;21.00;99.90
14277;DHT22;7222;57.346;12.150;2022-07-23T09:05:23;21.10;99.90
14277;DHT22;7222;57.346;12.150;2022-07-23T09:08:07;21.30;99.90
14277;DHT22;7222;57.346;12.150;2022-07-23T09:10:46;21.50;99.90
14277;DHT22;7222;57.346;12.150;2022-07-23T09:13:28;21.60;99.90
14277;DHT22;7222;57.346;12.150;2022-07-23T09:15:57;21.70;99.90
14277;DHT22;7222;57.346;12.150;2022-07-23T09:18:49;21.70;99.90
14277;DHT22;7222;57.346;12.150;2022-07-23T09:21:21;21.70;99.90
14277;DHT22;7222;57.346;12.150;2022-07-23T09:23:53;22.00;99.90
14277;DHT22;7222;57.346;12.150;2022-07-23T09:26:31;22.00;99.90
14277;DHT22;7222;57.346;12.150;2022-07-23T09:29:04;22.00;99.90
14277;DHT22;7222;57.346;12.150;2022-07-23T09:31:34;22.30;99.90
14277;DHT22;7222;57.346;12.150;2022-07-23T09:34:08;22.30;99.90
14277;DHT22;7222;57.346;12.150;2022-07-23T09:36:38;22.40;99.90
14277;DHT22;7222;57.346;12.150;2022-07-23T09:39:05;22.50;99.90
14277;DHT22;7222;57.346;12.150;2022-07-23T09:41:41;22.70;99.90
14277;DHT22;7222;57.346;12.150;2022-07-23T09:44:13;22.40;99.90
14277;DHT22;7222;57.346;12.150;2022-07-23T09:46:42;22.50;99.90
14277;DHT22;7222;57.346;12.150;2022-07-23T09:49:14;22.20;99.90
14277;DHT22;7222;57.346;12.150;2022-07-23T09:51:51;21.60;99.90
14277;DHT22;7222;57.346;12.150;2022-07-23T09:54:24;22.20;99.90
14277;DHT22;7222;57.346;12.150;2022-07-23T09:56:52;22.70;99.90
14277;DHT22;7222;57.346;12.150;2022-07-23T09:59:24;22.60;99.90
14277;DHT22;7222;57.346;12.150;2022-07-23T10:01:53;22.90;99.90
14277;DHT22;7222;57.346;12.150;2022-07-23T10:04:21;23.10;99.90
14277;DHT22;7222;57.346;12.150;2022-07-23T10:06:51;23.20;99.90
14277;DHT22;7222;57.346;12.150;2022-07-23T10:09:23;23.10;99.90
14277;DHT22;7222;57.346;12.150;2022-07-23T10:11:50;23.00;99.90
14277;DHT22;7222;57.346;12.150;2022-07-23T10:14:18;23.10;99.90
14277;DHT22;7222;57.346;12.150;2022-07-23T10:16:45;23.20;99.90
14277;DHT22;7222;57.346;12.150;2022-07-23T10:19:13;23.20;99.90
14277;DHT22;7222;57.346;12.150;2022-07-23T10:21:44;23.00;99.90
14277;DHT22;7222;57.346;12.150;2022-07-23T10:24:21;23.00;99.90
14277;DHT22;7222;57.346;12.150;2022-07-23T10:26:58;23.00;99.90
14277;DHT22;7222;57.346;12.150;2022-07-23T10:29:38;23.20;99.90
14277;DHT22;7222;57.346;12.150;2022-07-23T10:32:17;23.10;99.90
14277;DHT22;7222;57.346;12.150;2022-07-23T10:34:52;23.20;99.90
14277;DHT22;7222;57.346;12.150;2022-07-23T10:37:25;23.20;99.90
14277;DHT22;7222;57.346;12.150;2022-07-23T10:40:11;23.20;99.90
14277;DHT22;7222;57.346;12.150;2022-07-23T10:42:38;23.20;99.90
14277;DHT22;7222;57.346;12.150;2022-07-23T10:45:28;23.20;99.90
14277;DHT22;7222;57.346;12.150;2022-07-23T10:47:55;23.10;99.90
14277;DHT22;7222;57.346;12.150;2022-07-23T10:50:37;23.10;99.90
14277;DHT22;7222;57.346;12.150;2022-07-23T10:53:16;23.10;99.90
14277;DHT22;7222;57.346;12.150;2022-07-23T10:55:49;23.00;99.90
14277;DHT22;7222;57.346;12.150;2022-07-23T10:58:23;22.90;99.90
14277;DHT22;7222;57.346;12.150;2022-07-23T11:00:50;22.80;99.90
14277;DHT22;7222;57.346;12.150;2022-07-23T11:03:34;22.70;99.90
14277;DHT22;7222;57.346;12.150;2022-07-23T11:06:04;22.60;99.90
14277;DHT22;7222;57.346;12.150;2022-07-23T11:08:32;21.80;99.90
14277;DHT22;7222;57.346;12.150;2022-07-23T11:11:11;20.80;99.90
14277;DHT22;7222;57.346;12.150;2022-07-23T11:13:40;20.80;99.90
14277;DHT22;7222;57.346;12.150;2022-07-23T11:16:22;21.10;99.90
14277;DHT22;7222;57.346;12.150;2022-07-23T11:18:54;21.90;99.90
14277;DHT22;7222;57.346;12.150;2022-07-23T11:21:46;22.00;99.90
14277;DHT22;7222;57.346;12.150;2022-07-23T11:24:16;22.20;99.90
14277;DHT22;7222;57.346;12.150;2022-07-23T11:26:49;22.50;99.90
14277;DHT22;7222;57.346;12.150;2022-07-23T11:29:44;21.80;99.90
14277;DHT22;7222;57.346;12.150;2022-07-23T11:32:30;21.80;99.90
14277;DHT22;7222;57.346;12.150;2022-07-23T11:34:59;21.70;99.90
14277;DHT22;7222;57.346;12.150;2022-07-23T11:37:43;21.80;99.90
14277;DHT22;7222;57.346;12.150;2022-07-23T11:40:13;21.90;99.90
14277;DHT22;7222;57.346;12.150;2022-07-23T11:42:53;22.10;99.90
14277;DHT22;7222;57.346;12.150;2022-07-23T11:45:21;22.10;99.90
14277;DHT22;7222;57.346;12.150;2022-07-23T11:47:48;22.10;99.90
14277;DHT22;7222;57.346;12.150;2022-07-23T11:50:15;22.20;99.90
14277;DHT22;7222;57.346;12.150;2022-07-23T11:52:42;22.30;99.90
14277;DHT22;7222;57.346;12.150;2022-07-23T11:55:10;22.30;99.90
14277;DHT22;7222;57.346;12.150;2022-07-23T11:57:40;22.10;99.90
14277;DHT22;7222;57.346;12.150;2022-07-23T12:00:10;22.00;99.90
14277;DHT22;7222;57.346;12.150;2022-07-23T12:02:38;21.80;99.90
14277;DHT22;7222;57.346;12.150;2022-07-23T12:05:06;22.10;99.90
14277;DHT22;7222;57.346;12.150;2022-07-23T12:07:36;22.10;99.90
14277;DHT22;7222;57.346;12.150;2022-07-23T12:10:08;22.00;99.90
14277;DHT22;7222;57.346;12.150;2022-07-23T12:12:37;22.10;99.90
14277;DHT22;7222;57.346;12.150;2022-07-23T12:15:06;22.10;99.90
14277;DHT22;7222;57.346;12.150;2022-07-23T12:17:36;22.10;99.90
14277;DHT22;7222;57.346;12.150;2022-07-23T12:20:05;22.00;99.90
14277;DHT22;7222;57.346;12.150;2022-07-23T12:22:35;22.10;99.90
14277;DHT22;7222;57.346;12.150;2022-07-23T12:25:05;22.20;99.90
14277;DHT22;7222;57.346;12.150;2022-07-23T12:27:33;22.20;99.90
14277;DHT22;7222;57.346;12.150;2022-07-23T12:30:18;22.20;99.90
14277;DHT22;7222;57.346;12.150;2022-07-23T12:32:49;22.30;99.90
14277;DHT22;7222;57.346;12.150;2022-07-23T12:35:16;21.80;99.90
14277;DHT22;7222;57.346;12.150;2022-07-23T12:37:44;21.80;99.90
14277;DHT22;7222;57.346;12.150;2022-07-23T12:40:23;21.90;99.90
14277;DHT22;7222;57.346;12.150;2022-07-23T12:42:52;21.40;99.90
14277;DHT22;7222;57.346;12.150;2022-07-23T12:45:19;22.10;99.90
14277;DHT22;7222;57.346;12.150;2022-07-23T12:50:40;22.10;99.90
14277;DHT22;7222;57.346;12.150;2022-07-23T12:53:09;22.10;99.90
14277;DHT22;7222;57.346;12.150;2022-07-23T12:55:37;22.40;99.90
14277;DHT22;7222;57.346;12.150;2022-07-23T12:58:10;22.70;99.90
14277;DHT22;7222;57.346;12.150;2022-07-23T13:00:52;22.80;99.90
14277;DHT22;7222;57.346;12.150;2022-07-23T13:03:29;23.00;99.90
14277;DHT22;7222;57.346;12.150;2022-07-23T13:05:57;22.90;99.90
14277;DHT22;7222;57.346;12.150;2022-07-23T13:08:27;23.00;99.90
14277;DHT22;7222;57.346;12.150;2022-07-23T13:10:54;23.20;99.90
14277;DHT22;7222;57.346;12.150;2022-07-23T13:13:22;23.20;99.90
14277;DHT22;7222;57.346;12.150;2022-07-23T13:15:51;23.20;99.90
14277;DHT22;7222;57.346;12.150;2022-07-23T13:18:18;23.10;99.90
14277;DHT22;7222;57.346;12.150;2022-07-23T13:20:47;23.40;99.90
14277;DHT22;7222;57.346;12.150;2022-07-23T13:23:15;23.50;99.90
14277;DHT22;7222;57.346;12.150;2022-07-23T13:25:42;23.70;99.90
14277;DHT22;7222;57.346;12.150;2022-07-23T13:28:09;23.70;99.90
14277;DHT22;7222;57.346;12.150;2022-07-23T13:30:36;23.60;99.90
14277;DHT22;7222;57.346;12.150;2022-07-23T13:33:04;23.50;99.90
14277;DHT22;7222;57.346;12.150;2022-07-23T13:35:31;23.70;99.90
14277;DHT22;7222;57.346;12.150;2022-07-23T13:38:00;23.70;99.90
14277;DHT22;7222;57.346;12.150;2022-07-23T13:40:27;23.40;99.90
14277;DHT22;7222;57.346;12.150;2022-07-23T13:42:54;23.60;99.90
14277;DHT22;7222;57.346;12.150;2022-07-23T13:45:21;23.80;99.90
14277;DHT22;7222;57.346;12.150;2022-07-23T13:47:48;23.80;99.90
14277;DHT22;7222;57.346;12.150;2022-07-23T13:50:15;23.90;99.90
14277;DHT22;7222;57.346;12.150;2022-07-23T13:52:42;23.90;99.90
14277;DHT22;7222;57.346;12.150;2022-07-23T13:55:11;24.00;99.90
14277;DHT22;7222;57.346;12.150;2022-07-23T13:57:38;24.10;99.90
14277;DHT22;7222;57.346;12.150;2022-07-23T14:00:07;24.00;99.90
14277;DHT22;7222;57.346;12.150;2022-07-23T14:02:36;23.90;99.90
14277;DHT22;7222;57.346;12.150;2022-07-23T14:05:04;24.00;99.90
14277;DHT22;7222;57.346;12.150;2022-07-23T14:07:32;24.10;99.90
14277;DHT22;7222;57.346;12.150;2022-07-23T14:09:59;24.20;99.90
14277;DHT22;7222;57.346;12.150;2022-07-23T14:12:27;24.20;99.90
14277;DHT22;7222;57.346;12.150;2022-07-23T14:14:54;24.10;99.90
14277;DHT22;7222;57.346;12.150;2022-07-23T14:17:21;24.20;99.90
14277;DHT22;7222;57.346;12.150;2022-07-23T14:19:48;24.20;99.90
14277;DHT22;7222;57.346;12.150;2022-07-23T14:22:15;24.30;99.90
14277;DHT22;7222;57.346;12.150;2022-07-23T14:24:43;24.00;99.90
14277;DHT22;7222;57.346;12.150;2022-07-23T14:27:10;23.30;99.90
14277;DHT22;7222;57.346;12.150;2022-07-23T14:29:38;22.30;99.90
14277;DHT22;7222;57.346;12.150;2022-07-23T14:32:05;22.90;99.90
14277;DHT22;7222;57.346;12.150;2022-07-23T14:34:33;23.50;99.90
14277;DHT22;7222;57.346;12.150;2022-07-23T14:37:00;23.90;99.90
14277;DHT22;7222;57.346;12.150;2022-07-23T14:39:27;24.10;99.90
14277;DHT22;7222;57.346;12.150;2022-07-23T14:41:54;24.20;99.90
14277;DHT22;7222;57.346;12.150;2022-07-23T14:44:21;24.20;99.90
14277;DHT22;7222;57.346;12.150;2022-07-23T14:46:50;24.20;99.90
14277;DHT22;7222;57.346;12.150;2022-07-23T14:49:17;24.20;99.90
14277;DHT22;7222;57.346;12.150;2022-07-23T14:51:44;24.20;99.90
14277;DHT22;7222;57.346;12.150;2022-07-23T14:54:11;24.20;99.90
14277;DHT22;7222;57.346;12.150;2022-07-23T14:56:39;24.10;99.90
14277;DHT22;7222;57.346;12.150;2022-07-23T14:59:07;24.20;99.90
14277;DHT22;7222;57.346;12.150;2022-07-23T15:01:34;24.20;99.90
14277;DHT22;7222;57.346;12.150;2022-07-23T15:04:03;24.20;99.90
14277;DHT22;7222;57.346;12.150;2022-07-23T15:06:30;24.30;99.90
14277;DHT22;7222;57.346;12.150;2022-07-23T15:08:58;24.30;99.90
14277;DHT22;7222;57.346;12.150;2022-07-23T15:11:25;24.20;99.90
14277;DHT22;7222;57.346;12.150;2022-07-23T15:13:52;24.20;99.90
14277;DHT22;7222;57.346;12.150;2022-07-23T15:16:19;24.10;99.90
14277;DHT22;7222;57.346;12.150;2022-07-23T15:18:46;23.70;99.90
14277;DHT22;7222;57.346;12.150;2022-07-23T15:21:15;23.00;99.90
14277;DHT22;7222;57.346;12.150;2022-07-23T15:23:42;23.20;99.90
14277;DHT22;7222;57.346;12.150;2022-07-23T15:26:09;23.70;99.90
14277;DHT22;7222;57.346;12.150;2022-07-23T15:28:36;23.80;99.90
14277;DHT22;7222;57.346;12.150;2022-07-23T15:31:03;23.70;99.90
14277;DHT22;7222;57.346;12.150;2022-07-23T15:33:31;24.00;99.90
14277;DHT22;7222;57.346;12.150;2022-07-23T15:35:57;23.60;99.90
14277;DHT22;7222;57.346;12.150;2022-07-23T15:38:26;23.40;99.90
14277;DHT22;7222;57.346;12.150;2022-07-23T15:40:54;23.60;99.90
14277;DHT22;7222;57.346;12.150;2022-07-23T15:43:21;23.90;99.90